Quick Links (Output Below):   Max & Min Temps   /   Climate Reports   /   Zone Forecasts
River Forecasts   /   Forestry Forecasts   /   Aviation Forecasts   /   Radars   /   Features

Terminal Aerodrome Forecast (Highfill)

Pick a Site:
Arkadelphia | El Dorado | Fayetteville | Fort Smith | Harrison | Highfill | Hot Springs | Jonesboro
Little Rock | Monticello | Mountain Home | Pine Bluff | Texarkana
 Forecast 

KXNA 191733Z 1918/2018 16008KT P6SM SCT250
     FM200100 VRB03KT P6SM BKN200
     FM201700 18010KT P6SM SCT045 OVC150=


 Latest METARs (Observations) 
How to Decode METARs
20Z KXNA 191953Z AUTO 20007KT 10SM CLR 23/07 A3016 RMK AO2 SLP205
         T02330072
         
19Z KXNA 191853Z 18012G16KT 10SM CLR 23/08 A3018 RMK AO2 SLP213
         T02280083
         
18Z KXNA 191753Z 17011G15KT 10SM FEW055 22/07 A3020 RMK AO2 SLP219
         T02220072 10222 20072 58013
         
17Z KXNA 191653Z 16005KT 10SM CLR 21/08 A3023 RMK AO2 SLP228
         T02060078
         
16Z KXNA 191553Z 16006KT 10SM CLR 19/08 A3024 RMK AO2 SLP232
         T01940078
         
15Z KXNA 191453Z 16006KT 10SM CLR 18/09 A3024 RMK AO2 SLP232 T01830089
         51012
         
14Z KXNA 191353Z 00000KT 10SM CLR 14/08 A3023 RMK AO2 SLP231
         T01440083
         
13Z KXNA 191253Z 00000KT 10SM CLR 11/07 A3022 RMK AO2 SLP227
         T01060072
         
12Z KXNA 191153Z 00000KT 10SM CLR 07/05 A3020 RMK AO2 SLP222 T00720050
         10117 20061 53005
         
11Z KXNA 191053Z 00000KT 10SM CLR 08/05 A3019 RMK AO2 SLP217
         T00780050
         
***** Today's Observations (Above) *****


Back to Main Page
http://www.srh.noaa.gov/lzk/qfcst.php

USA.gov is the U.S. government's official web portal to all federal, state and local government web resources and services.